Time;durP1;ratioP1;P1;durP2;ratioP2;P2;SDS_P1;SDS_P2;PMS_P1;PMS_P2;Temp;Humidity;BMP_temperature;BMP_pressure;BME280_temperature;BME280_humidity;BME280_pressure;Samples;Min_cycle;Max_cycle;Signal;HPM_P1;HPM_P2
2023/08/02 00:00:05;;;;;;;2.40;0.70;;;;;;;18.72;100.00;100251.69;104323;1264;59955;-49
2023/08/02 00:02:37;;;;;;;2.80;0.80;;;;;;;18.70;100.00;100255.16;104397;1267;73051;-50
2023/08/02 00:05:05;;;;;;;1.40;0.90;;;;;;;18.69;100.00;100252.50;104406;1270;65957;-52
2023/08/02 00:07:32;;;;;;;2.60;0.60;;;;;;;18.66;100.00;100252.52;104305;1269;73573;-49
2023/08/02 00:10:00;;;;;;;1.90;0.80;;;;;;;18.65;100.00;100248.39;104431;1264;61719;-50
2023/08/02 00:12:27;;;;;;;1.90;1.10;;;;;;;18.66;100.00;100246.94;106650;1266;59794;-51
2023/08/02 00:14:55;;;;;;;0.80;0.60;;;;;;;18.66;100.00;100245.65;104395;1264;73539;-51
2023/08/02 00:17:22;;;;;;;1.50;0.80;;;;;;;18.66;100.00;100242.71;104236;1270;66791;-49
2023/08/02 00:19:49;;;;;;;1.00;0.80;;;;;;;18.67;100.00;100237.56;104181;1263;71453;-51
2023/08/02 00:22:16;;;;;;;2.70;0.80;;;;;;;18.67;100.00;100239.54;104102;1268;60995;-50
2023/08/02 00:24:44;;;;;;;1.20;1.00;;;;;;;18.68;100.00;100242.60;104024;1263;60007;-52
2023/08/02 00:27:11;;;;;;;2.70;0.90;;;;;;;18.68;100.00;100248.20;104261;1269;71731;-49
2023/08/02 00:29:38;;;;;;;1.20;0.80;;;;;;;18.68;100.00;100250.75;104181;1264;65806;-50
2023/08/02 00:32:06;;;;;;;2.20;0.80;;;;;;;18.68;100.00;100250.61;104270;1268;72500;-49
2023/08/02 00:34:34;;;;;;;3.70;1.20;;;;;;;18.66;100.00;100249.42;104261;1263;61682;-50
2023/08/02 00:37:01;;;;;;;0.80;0.70;;;;;;;18.64;100.00;100248.01;104468;1269;59664;-49
2023/08/02 00:39:29;;;;;;;2.40;0.70;;;;;;;18.60;100.00;100246.45;108346;1263;72990;-52
2023/08/02 00:42:03;;;;;;;1.50;0.90;;;;;;;18.57;100.00;100246.10;108429;1263;66806;-50
2023/08/02 00:44:30;;;;;;;2.90;0.90;;;;;;;18.56;100.00;100247.59;108428;1265;73184;-50
2023/08/02 00:46:57;;;;;;;1.10;0.90;;;;;;;18.56;100.00;100242.70;108273;1263;60393;-52
2023/08/02 00:49:25;;;;;;;1.10;0.80;;;;;;;18.56;100.00;100241.08;108227;1263;59244;-50
2023/08/02 00:51:52;;;;;;;3.40;0.70;;;;;;;18.56;100.00;100239.44;108396;1263;70944;-49
2023/08/02 00:54:19;;;;;;;0.90;0.80;;;;;;;18.55;100.00;100238.05;108298;1263;67566;-47
2023/08/02 00:56:47;;;;;;;1.30;0.80;;;;;;;18.53;100.00;100235.44;108231;1263;71398;-49
2023/08/02 00:59:14;;;;;;;0.90;0.80;;;;;;;18.53;100.00;100239.81;108168;1264;61730;-48
2023/08/02 01:01:42;;;;;;;3.30;0.90;;;;;;;18.53;100.00;100236.17;104685;1263;60498;-50
2023/08/02 01:04:10;;;;;;;1.40;0.80;;;;;;;18.54;100.00;100240.69;105603;1263;73057;-51
2023/08/02 01:06:58;;;;;;;1.90;0.80;;;;;;;18.54;100.00;100234.89;104195;1270;67075;-51
2023/08/02 01:09:50;;;;;;;1.00;0.80;;;;;;;18.50;100.00;100251.34;104101;1263;71392;-49
2023/08/02 01:12:17;;;;;;;0.80;0.80;;;;;;;18.47;100.00;100261.17;104150;1268;61706;-48
2023/08/02 01:14:49;;;;;;;1.30;0.80;;;;;;;18.46;100.00;100241.45;104070;1263;60578;-50
2023/08/02 01:17:25;;;;;;;3.70;0.80;;;;;;;18.44;100.00;100247.93;104470;1270;72277;-50
2023/08/02 01:20:05;;;;;;;2.60;0.90;;;;;;;18.43;100.00;100241.27;105209;1264;67609;-49
2023/08/02 01:22:33;;;;;;;2.80;1.10;;;;;;;18.41;100.00;100244.69;104290;1266;72708;-49
2023/08/02 01:25:00;;;;;;;2.00;0.80;;;;;;;18.40;100.00;100234.98;104715;1262;62392;-50
2023/08/02 01:27:54;;;;;;;0.70;0.70;;;;;;;18.38;100.00;100233.66;104483;1263;59624;-49
2023/08/02 01:30:21;;;;;;;0.70;0.70;;;;;;;18.36;100.00;100248.38;106379;1257;72111;-49
2023/08/02 01:32:48;;;;;;;1.50;0.90;;;;;;;18.35;100.00;100233.16;104630;1256;67040;-51
2023/08/02 01:35:16;;;;;;;0.80;0.80;;;;;;;18.34;100.00;100229.58;104606;1257;72713;-50
2023/08/02 01:37:44;;;;;;;0.90;0.70;;;;;;;18.34;100.00;100229.80;104722;1257;62912;-50
2023/08/02 01:40:13;;;;;;;2.50;0.80;;;;;;;18.33;100.00;100223.53;105168;1256;61866;-50
2023/08/02 01:42:41;;;;;;;3.30;0.70;;;;;;;18.30;100.00;100218.80;106093;1256;71624;-50
2023/08/02 01:45:09;;;;;;;0.80;0.80;;;;;;;18.27;100.00;100212.70;104781;1257;66965;-50
2023/08/02 01:47:36;;;;;;;1.80;0.90;;;;;;;18.25;100.00;100210.48;104782;1257;72232;-50
2023/08/02 01:50:04;;;;;;;2.60;1.10;;;;;;;18.24;100.00;100212.00;104582;1256;61297;-49
2023/08/02 01:52:31;;;;;;;1.20;0.70;;;;;;;18.23;100.00;100214.61;104324;1264;60949;-52
2023/08/02 01:54:58;;;;;;;4.40;0.90;;;;;;;18.22;100.00;100216.33;104352;1257;74709;-50
2023/08/02 01:57:26;;;;;;;0.70;0.70;;;;;;;18.20;100.00;100218.27;104481;1258;67199;-51
2023/08/02 01:59:53;;;;;;;1.40;0.80;;;;;;;18.19;100.00;100216.02;104504;1262;71354;-50
2023/08/02 02:02:20;;;;;;;4.30;0.70;;;;;;;18.17;100.00;100213.26;104876;1264;61674;-49
2023/08/02 02:04:48;;;;;;;1.40;0.70;;;;;;;18.14;100.00;100209.81;105133;1257;60590;-52
2023/08/02 02:07:15;;;;;;;4.70;0.70;;;;;;;18.11;100.00;100208.73;104523;1256;72581;-50
2023/08/02 02:09:42;;;;;;;2.40;0.90;;;;;;;18.09;100.00;100212.16;104373;1260;65737;-50
2023/08/02 02:12:10;;;;;;;1.20;0.80;;;;;;;18.08;100.00;100209.48;104324;1261;71679;-50
2023/08/02 02:14:37;;;;;;;2.60;0.90;;;;;;;18.08;100.00;100206.09;104444;1260;62194;-50
2023/08/02 02:17:05;;;;;;;2.40;0.90;;;;;;;18.07;100.00;100207.22;104587;1259;60469;-51
2023/08/02 02:19:32;;;;;;;2.60;0.90;;;;;;;18.05;100.00;100207.34;104575;1256;72570;-49
2023/08/02 02:21:59;;;;;;;0.90;0.90;;;;;;;18.03;100.00;100207.33;104838;1257;68335;-50
2023/08/02 02:24:27;;;;;;;1.70;1.00;;;;;;;18.02;100.00;100214.09;104592;1256;71711;-50
2023/08/02 02:26:56;;;;;;;1.20;0.90;;;;;;;18.01;100.00;100217.42;104634;1259;60476;-49
2023/08/02 02:29:24;;;;;;;1.00;1.00;;;;;;;18.01;100.00;100216.23;104699;1255;60586;-49
2023/08/02 02:31:51;;;;;;;0.90;0.90;;;;;;;18.00;100.00;100215.36;104997;1253;72136;-51
2023/08/02 02:34:18;;;;;;;1.10;0.90;;;;;;;18.00;100.00;100216.82;104842;1253;66872;-51
2023/08/02 02:36:46;;;;;;;3.00;0.80;;;;;;;18.00;100.00;100215.92;104998;1253;71396;-50
2023/08/02 02:39:13;;;;;;;0.80;0.80;;;;;;;18.00;100.00;100220.27;104977;1254;61700;-51
2023/08/02 02:41:41;;;;;;;1.80;1.00;;;;;;;18.00;100.00;100216.64;104877;1253;60642;-50
2023/08/02 02:44:08;;;;;;;1.10;0.80;;;;;;;18.00;100.00;100218.45;104897;1253;72352;-52
2023/08/02 02:46:35;;;;;;;1.30;0.80;;;;;;;18.00;100.00;100219.34;104939;1253;66759;-51
2023/08/02 02:49:03;;;;;;;2.00;0.90;;;;;;;18.00;100.00;100221.20;105442;1253;70766;-50
2023/08/02 02:51:30;;;;;;;1.40;0.80;;;;;;;18.00;100.00;100224.27;104449;1256;61739;-50
2023/08/02 02:53:57;;;;;;;2.20;0.80;;;;;;;18.01;100.00;100229.14;104616;1253;61798;-51
2023/08/02 02:56:25;;;;;;;2.50;0.90;;;;;;;18.01;100.00;100223.64;104520;1253;72765;-49
2023/08/02 02:58:52;;;;;;;1.40;0.90;;;;;;;18.02;100.00;100227.91;104598;1253;66778;-51
2023/08/02 03:01:21;;;;;;;3.70;1.00;;;;;;;18.03;100.00;100229.64;104492;1257;72725;-51
2023/08/02 03:03:48;;;;;;;1.20;0.80;;;;;;;18.05;100.00;100235.70;104646;1253;60806;-51
2023/08/02 03:06:16;;;;;;;3.40;0.80;;;;;;;18.06;100.00;100235.44;105069;1253;61791;-50
2023/08/02 03:08:43;;;;;;;1.00;0.80;;;;;;;18.06;100.00;100236.70;104492;1252;72616;-50
2023/08/02 03:11:10;;;;;;;2.70;0.70;;;;;;;18.08;100.00;100232.24;104519;1253;69685;-50
2023/08/02 03:13:37;;;;;;;1.10;1.00;;;;;;;18.10;100.00;100236.23;104831;1259;72424;-50
2023/08/02 03:16:05;;;;;;;1.50;1.30;;;;;;;18.12;100.00;100238.86;104719;1253;62025;-50
2023/08/02 03:18:32;;;;;;;0.90;0.80;;;;;;;18.12;100.00;100239.04;104969;1253;60626;-50
2023/08/02 03:21:00;;;;;;;3.60;0.80;;;;;;;18.13;100.00;100241.84;108910;1252;72591;-51
2023/08/02 03:23:27;;;;;;;1.10;0.80;;;;;;;18.15;100.00;100243.17;108967;1252;65539;-52
2023/08/02 03:25:55;;;;;;;1.60;0.70;;;;;;;18.17;100.00;100244.46;108944;1252;72814;-51
2023/08/02 03:28:22;;;;;;;1.20;0.80;;;;;;;18.19;100.00;100244.69;108899;1252;60365;-52
2023/08/02 03:30:49;;;;;;;2.30;0.90;;;;;;;18.21;100.00;100247.44;108986;1252;59925;-51
2023/08/02 03:33:17;;;;;;;5.90;1.70;;;;;;;18.23;100.00;100249.27;108920;1252;72587;-52
2023/08/02 03:35:44;;;;;;;6.40;1.60;;;;;;;18.28;100.00;100250.42;108960;1253;67242;-52
2023/08/02 03:38:11;;;;;;;6.10;1.20;;;;;;;18.33;100.00;100257.45;109017;1253;72655;-52
2023/08/02 03:40:39;;;;;;;2.60;0.90;;;;;;;18.39;100.00;100262.66;108929;1252;64477;-50
2023/08/02 03:43:06;;;;;;;2.90;0.90;;;;;;;18.45;100.00;100270.21;108913;1252;60439;-49
2023/08/02 03:45:33;;;;;;;4.30;1.10;;;;;;;18.51;100.00;100274.14;108916;1252;72644;-50
2023/08/02 03:48:00;;;;;;;4.00;0.90;;;;;;;18.57;100.00;100279.19;109003;1253;67571;-49
2023/08/02 03:50:28;;;;;;;2.50;1.60;;;;;;;18.64;100.00;100284.90;109071;1253;71292;-50
2023/08/02 03:52:58;;;;;;;0.90;0.80;;;;;;;18.70;100.00;100290.21;109087;1253;60397;-49
2023/08/02 03:55:25;;;;;;;2.10;0.90;;;;;;;18.77;100.00;100301.14;109187;1253;59212;-48
2023/08/02 03:57:52;;;;;;;1.20;1.10;;;;;;;18.85;100.00;100299.67;108431;1254;73081;-50
2023/08/02 04:00:20;;;;;;;3.00;1.00;;;;;;;18.93;100.00;100308.38;104961;1257;66769;-49
2023/08/02 04:02:47;;;;;;;3.40;1.30;;;;;;;19.01;100.00;100316.66;104935;1253;72641;-52
2023/08/02 04:05:14;;;;;;;3.90;1.10;;;;;;;19.08;100.00;100326.18;105115;1253;60605;-51
2023/08/02 04:07:43;;;;;;;2.30;1.00;;;;;;;19.15;100.00;100334.54;104918;1253;60560;-49
2023/08/02 04:10:10;;;;;;;1.50;1.40;;;;;;;19.22;100.00;100345.77;104863;1252;72546;-50
2023/08/02 04:12:37;;;;;;;1.50;1.40;;;;;;;19.32;100.00;100353.80;105060;1253;65836;-49
2023/08/02 04:15:05;;;;;;;1.30;1.00;;;;;;;19.41;100.00;100360.81;105038;1254;71177;-49
2023/08/02 04:17:33;;;;;;;2.20;1.30;;;;;;;19.49;100.00;100365.25;105006;1253;61035;-49
2023/08/02 04:20:01;;;;;;;1.30;1.20;;;;;;;19.60;100.00;100375.76;104899;1253;60504;-50
2023/08/02 04:22:31;;;;;;;1.40;1.30;;;;;;;19.71;100.00;100383.98;104864;1254;72612;-50
2023/08/02 04:24:59;;;;;;;1.30;1.20;;;;;;;19.87;100.00;100396.44;104728;1251;65710;-49
2023/08/02 04:27:26;;;;;;;1.60;1.20;;;;;;;20.01;100.00;100406.77;104798;1253;71310;-48
2023/08/02 04:29:53;;;;;;;1.00;0.90;;;;;;;20.15;100.00;100420.51;104866;1253;60624;-51
2023/08/02 04:32:21;;;;;;;5.40;2.10;;;;;;;20.27;100.00;100440.69;104914;1253;60703;-50
2023/08/02 04:34:48;;;;;;;1.40;1.30;;;;;;;20.37;100.00;100451.94;104811;1254;72631;-50
2023/08/02 04:37:16;;;;;;;1.20;1.10;;;;;;;20.50;100.00;100469.59;104978;1253;67633;-50
2023/08/02 04:39:43;;;;;;;1.20;1.00;;;;;;;20.67;100.00;100489.33;104869;1252;71453;-50
2023/08/02 04:42:10;;;;;;;1.10;1.10;;;;;;;20.81;100.00;100509.43;104998;1253;61678;-51
2023/08/02 04:44:37;;;;;;;1.30;1.00;;;;;;;20.91;100.00;100525.90;105025;1256;60732;-50
2023/08/02 04:47:05;;;;;;;1.30;1.20;;;;;;;21.00;100.00;100542.54;104826;1253;74438;-51
2023/08/02 04:49:32;;;;;;;1.70;1.10;;;;;;;21.07;100.00;100552.75;104757;1253;67247;-51
2023/08/02 04:52:00;;;;;;;1.40;1.30;;;;;;;21.15;100.00;100572.72;105101;1256;72705;-51
2023/08/02 04:54:27;;;;;;;1.20;1.10;;;;;;;21.25;100.00;100592.79;104923;1256;61676;-50
2023/08/02 04:56:54;;;;;;;1.20;1.10;;;;;;;21.35;100.00;100607.88;105058;1253;60591;-50
2023/08/02 04:59:23;;;;;;;2.10;1.10;;;;;;;21.44;100.00;100621.95;105156;1255;73840;-49
2023/08/02 05:01:50;;;;;;;2.50;1.10;;;;;;;21.52;100.00;100648.84;105190;1253;65578;-51
2023/08/02 05:04:17;;;;;;;0.90;0.90;;;;;;;21.61;100.00;100658.76;105082;1253;72685;-52
2023/08/02 05:06:45;;;;;;;3.00;1.20;;;;;;;21.70;100.00;100680.52;105266;1257;62168;-48
2023/08/02 05:09:12;;;;;;;1.90;1.10;;;;;;;21.78;100.00;100696.48;105099;1257;60379;-48
2023/08/02 05:11:40;;;;;;;1.10;1.00;;;;;;;21.86;100.00;100716.83;105320;1256;74270;-51
2023/08/02 05:14:08;;;;;;;0.80;0.80;;;;;;;21.95;100.00;100736.56;105824;1253;66863;-51
2023/08/02 05:16:36;;;;;;;2.90;1.60;;;;;;;22.05;100.00;100761.02;104915;1252;71172;-52
2023/08/02 05:19:04;;;;;;;1.00;1.00;;;;;;;22.15;100.00;100786.35;105505;1253;60566;-50
2023/08/02 05:21:31;;;;;;;2.00;1.10;;;;;;;22.25;100.00;100811.32;104829;1253;62181;-52
2023/08/02 05:23:59;;;;;;;1.20;1.00;;;;;;;22.33;100.00;100832.23;104701;1253;72704;-50
2023/08/02 05:26:26;;;;;;;2.70;1.10;;;;;;;22.42;100.00;100862.80;105085;1253;67107;-48
2023/08/02 05:28:53;;;;;;;1.00;1.00;;;;;;;22.52;100.00;100883.04;105090;1253;71459;-50
2023/08/02 05:31:21;;;;;;;2.10;1.00;;;;;;;22.63;100.00;100907.75;104973;1254;62550;-52
2023/08/02 05:33:48;;;;;;;1.10;1.00;;;;;;;22.74;100.00;100933.42;104885;1253;60540;-51
2023/08/02 05:36:16;;;;;;;1.50;1.20;;;;;;;22.86;100.00;100962.23;104874;1252;73834;-50
2023/08/02 05:38:43;;;;;;;0.90;0.90;;;;;;;22.96;100.00;100985.77;105052;1257;66295;-50
2023/08/02 05:41:11;;;;;;;1.20;1.10;;;;;;;23.07;100.00;101016.96;105219;1253;71472;-51
2023/08/02 05:43:44;;;;;;;1.00;1.00;;;;;;;23.16;100.00;101041.84;105038;1252;60658;-51
2023/08/02 05:46:12;;;;;;;1.40;1.30;;;;;;;23.23;100.00;101082.27;105439;1253;60466;-52
2023/08/02 05:48:39;;;;;;;1.00;1.00;;;;;;;23.28;100.00;101094.30;105083;1256;75981;-52
2023/08/02 05:51:06;;;;;;;1.30;1.20;;;;;;;23.36;100.00;101116.24;104892;1257;65639;-52
2023/08/02 05:53:34;;;;;;;1.50;0.90;;;;;;;23.44;100.00;101141.05;104922;1258;71379;-52
2023/08/02 05:56:02;;;;;;;0.90;0.80;;;;;;;23.53;100.00;101166.95;105013;1256;61580;-51
2023/08/02 05:58:29;;;;;;;2.30;0.90;;;;;;;23.61;100.00;101189.53;105157;1257;60532;-52
2023/08/02 06:00:56;;;;;;;1.00;0.80;;;;;;;23.69;100.00;101213.98;105009;1253;73866;-52
2023/08/02 06:03:24;;;;;;;0.80;0.80;;;;;;;23.78;100.00;101241.91;105055;1257;67730;-53
2023/08/02 06:05:51;;;;;;;0.90;0.90;;;;;;;23.86;100.00;101270.20;104779;1256;71533;-53
2023/08/02 06:08:18;;;;;;;1.10;0.80;;;;;;;23.92;100.00;101293.94;104873;1253;60561;-52
2023/08/02 06:10:46;;;;;;;0.90;0.90;;;;;;;23.98;100.00;101321.48;104893;1253;60395;-50
2023/08/02 06:13:13;;;;;;;1.60;0.90;;;;;;;24.05;100.00;101347.88;104921;1255;74424;-51
2023/08/02 06:15:40;;;;;;;1.10;1.00;;;;;;;24.10;100.00;101373.27;104923;1257;65854;-51
2023/08/02 06:18:08;;;;;;;1.60;0.90;;;;;;;24.16;100.00;101399.81;104851;1253;72719;-51
2023/08/02 06:20:35;;;;;;;0.80;0.80;;;;;;;24.20;100.00;101423.38;104809;1253;60534;-51
2023/08/02 06:23:02;;;;;;;0.90;0.90;;;;;;;24.23;100.00;101445.34;104792;1253;60590;-52
2023/08/02 06:25:30;;;;;;;0.90;0.90;;;;;;;24.25;100.00;101465.86;104923;1253;73837;-53
2023/08/02 06:27:57;;;;;;;1.20;0.80;;;;;;;24.28;100.00;101486.24;104788;1259;66917;-51
2023/08/02 06:30:24;;;;;;;3.60;0.70;;;;;;;24.31;100.00;101506.52;104792;1252;71461;-50
2023/08/02 06:32:52;;;;;;;0.90;0.90;;;;;;;24.36;100.00;101525.73;105069;1254;60550;-51
2023/08/02 06:35:19;;;;;;;0.80;0.70;;;;;;;24.43;100.00;101549.63;105051;1253;60554;-51
2023/08/02 06:37:46;;;;;;;1.00;0.90;;;;;;;24.48;100.00;101570.48;105027;1253;72631;-51
2023/08/02 06:40:14;;;;;;;0.90;0.90;;;;;;;24.53;100.00;101593.20;104876;1252;66885;-52
2023/08/02 06:42:41;;;;;;;1.10;1.00;;;;;;;24.59;100.00;101616.08;104850;1253;71324;-51
2023/08/02 06:45:09;;;;;;;1.30;1.00;;;;;;;24.65;100.00;101639.52;105006;1257;60545;-52
2023/08/02 06:47:36;;;;;;;2.40;1.00;;;;;;;24.70;100.00;101658.00;104966;1253;60530;-52
2023/08/02 06:50:04;;;;;;;3.90;1.00;;;;;;;24.73;100.00;101673.55;109193;1253;73868;-53
2023/08/02 06:52:32;;;;;;;1.30;0.90;;;;;;;24.73;100.00;101688.95;109194;1252;67531;-54
2023/08/02 06:54:59;;;;;;;1.90;0.80;;;;;;;24.75;100.00;101704.56;109080;1252;71430;-51
2023/08/02 06:57:31;;;;;;;0.80;0.80;;;;;;;24.79;100.00;101719.84;108612;1253;60549;-52
2023/08/02 06:59:58;;;;;;;0.70;0.70;;;;;;;24.85;100.00;101749.73;105038;1256;60610;-51
2023/08/02 07:02:25;;;;;;;1.20;0.70;;;;;;;24.92;100.00;101762.60;104996;1256;73824;-52
2023/08/02 07:04:53;;;;;;;0.70;0.70;;;;;;;25.01;100.00;101783.43;104793;1252;66878;-51
2023/08/02 07:07:21;;;;;;;5.00;0.80;;;;;;;25.09;100.00;101806.52;107722;1256;72959;-51
2023/08/02 07:09:48;;;;;;;2.00;0.90;;;;;;;25.15;100.00;101828.60;105046;1253;61100;-53
2023/08/02 07:12:16;;;;;;;0.70;0.70;;;;;;;25.20;100.00;101844.73;105015;1258;60458;-52
2023/08/02 07:14:43;;;;;;;5.60;0.70;;;;;;;25.25;100.00;101862.19;105010;1252;73922;-51
2023/08/02 07:17:10;;;;;;;0.70;0.70;;;;;;;25.32;100.00;101882.08;105003;1252;65497;-52
2023/08/02 07:19:38;;;;;;;0.80;0.60;;;;;;;25.39;100.00;101904.89;106141;1257;72610;-53
2023/08/02 07:22:05;;;;;;;2.90;1.10;;;;;;;25.44;100.00;101922.10;105069;1253;60632;-52
2023/08/02 07:24:33;;;;;;;0.70;0.70;;;;;;;25.49;100.00;101939.75;104928;1253;60489;-52
2023/08/02 07:27:00;;;;;;;0.70;0.70;;;;;;;25.54;100.00;101957.73;104980;1253;72549;-52
2023/08/02 07:29:27;;;;;;;0.70;0.70;;;;;;;25.60;100.00;101982.10;105075;1253;69586;-54
2023/08/02 07:31:55;;;;;;;0.90;0.80;;;;;;;25.64;100.00;101996.36;105099;1253;71459;-54
2023/08/02 07:34:22;;;;;;;1.90;0.80;;;;;;;25.65;100.00;102006.05;105075;1258;60542;-53
2023/08/02 07:36:49;;;;;;;0.90;0.90;;;;;;;25.65;100.00;102024.20;105240;1254;60411;-53
2023/08/02 07:39:16;;;;;;;1.30;0.80;;;;;;;25.67;100.00;102032.17;104972;1252;72569;-53
2023/08/02 07:41:44;;;;;;;0.80;0.80;;;;;;;25.69;100.00;102044.70;104944;1253;65497;-53
2023/08/02 07:44:13;;;;;;;3.00;0.90;;;;;;;25.74;100.00;102053.53;105015;1256;72619;-53
2023/08/02 07:46:41;;;;;;;0.90;0.80;;;;;;;25.81;100.00;102074.13;104779;1253;62202;-52
2023/08/02 07:49:09;;;;;;;1.00;0.80;;;;;;;25.88;100.00;102083.73;104876;1254;60480;-50
2023/08/02 07:51:37;;;;;;;1.30;0.90;;;;;;;25.93;100.00;102103.41;105009;1256;73762;-52
2023/08/02 07:54:04;;;;;;;1.60;0.70;;;;;;;25.95;100.00;102109.67;105057;1252;65823;-51
2023/08/02 07:56:32;;;;;;;2.60;0.80;;;;;;;25.95;100.00;102115.33;104974;1256;73106;-52
2023/08/02 07:58:59;;;;;;;0.90;0.90;;;;;;;25.96;100.00;102124.81;104912;1259;60463;-51
2023/08/02 08:01:30;;;;;;;1.10;0.80;;;;;;;25.98;100.00;102144.36;104932;1251;60552;-51
2023/08/02 08:03:58;;;;;;;0.90;0.80;;;;;;;26.01;100.00;102143.95;105011;1253;72609;-52
2023/08/02 08:06:25;;;;;;;1.00;0.70;;;;;;;26.08;100.00;102153.41;105049;1257;67899;-51
2023/08/02 08:08:52;;;;;;;1.90;0.70;;;;;;;26.14;100.00;102159.35;105034;1259;72695;-50
2023/08/02 08:11:20;;;;;;;0.90;0.90;;;;;;;26.21;100.00;102175.54;105077;1256;60671;-51
2023/08/02 08:13:52;;;;;;;1.90;0.80;;;;;;;26.27;100.00;102194.60;104864;1259;60507;-51
2023/08/02 08:16:19;;;;;;;0.70;0.70;;;;;;;26.29;100.00;102195.73;105073;1253;75704;-51
2023/08/02 08:18:47;;;;;;;0.70;0.70;;;;;;;26.33;100.00;102203.42;104852;1257;66872;-50
2023/08/02 08:21:17;;;;;;;0.80;0.80;;;;;;;26.38;100.00;102227.70;105015;1258;72684;-51
2023/08/02 08:23:45;;;;;;;0.70;0.70;;;;;;;26.44;100.00;102230.92;104854;1253;60558;-51
2023/08/02 08:26:12;;;;;;;0.70;0.60;;;;;;;26.48;100.00;102241.98;104876;1253;60975;-51
2023/08/02 08:28:40;;;;;;;0.70;0.70;;;;;;;26.51;100.00;102250.78;105138;1253;73937;-51
2023/08/02 08:31:07;;;;;;;0.70;0.70;;;;;;;26.54;100.00;102257.81;105154;1253;66837;-51
2023/08/02 08:33:34;;;;;;;2.60;0.80;;;;;;;26.54;100.00;102262.90;105083;1253;72638;-53
2023/08/02 08:36:02;;;;;;;4.10;0.90;;;;;;;26.53;100.00;102260.81;104991;1252;60894;-52
2023/08/02 08:38:30;;;;;;;1.50;0.80;;;;;;;26.52;100.00;102260.68;104984;1253;60533;-50
2023/08/02 08:40:58;;;;;;;2.40;1.00;;;;;;;26.52;100.00;102259.59;105090;1259;73877;-52
2023/08/02 08:43:26;;;;;;;1.50;0.80;;;;;;;26.53;100.00;102269.63;104832;1253;67253;-51
2023/08/02 08:45:55;;;;;;;0.90;0.70;;;;;;;26.53;100.00;102274.02;104830;1258;74829;-51
2023/08/02 08:48:23;;;;;;;0.70;0.70;;;;;;;26.54;100.00;102273.73;107517;1252;60414;-52
2023/08/02 08:50:51;;;;;;;0.90;0.80;;;;;;;26.58;100.00;102273.44;105478;1254;60473;-51
2023/08/02 08:53:33;;;;;;;0.80;0.80;;;;;;;26.63;100.00;102276.79;104785;1259;73780;-51
2023/08/02 08:56:02;;;;;;;0.80;0.80;;;;;;;26.67;100.00;102309.42;104875;1254;66552;-52
2023/08/02 08:58:32;;;;;;;1.10;0.90;;;;;;;26.70;100.00;102290.74;105115;1258;71228;-51
2023/08/02 09:01:02;;;;;;;0.70;0.70;;;;;;;26.75;100.00;102296.45;104981;1253;60520;-52
2023/08/02 09:03:29;;;;;;;0.90;0.60;;;;;;;26.82;100.00;102295.95;104678;1257;60393;-53
2023/08/02 09:05:59;;;;;;;0.70;0.70;;;;;;;26.89;100.00;102299.44;104981;1253;72640;-52
2023/08/02 09:08:27;;;;;;;0.70;0.70;;;;;;;26.92;100.00;102310.07;105568;1254;69267;-52
2023/08/02 09:10:54;;;;;;;1.20;0.80;;;;;;;26.94;100.00;102303.52;104952;1256;72246;-51
2023/08/02 09:13:22;;;;;;;0.70;0.70;;;;;;;26.95;100.00;102302.88;104882;1253;60467;-51
2023/08/02 09:16:09;;;;;;;0.60;0.60;;;;;;;26.99;100.00;102312.72;105490;1253;60525;-50
2023/08/02 09:18:44;;;;;;;0.60;0.60;;;;;;;27.04;100.00;102355.45;106975;1256;73871;-51
2023/08/02 09:21:15;;;;;;;0.60;0.60;;;;;;;27.10;100.00;102338.77;109224;1252;66781;-53
2023/08/02 09:23:47;;;;;;;1.10;0.50;;;;;;;27.18;100.00;102339.11;109204;1253;72624;-54
2023/08/02 09:26:18;;;;;;;0.60;0.60;;;;;;;27.26;100.00;102346.51;109204;1253;62118;-52
2023/08/02 09:29:15;;;;;;;0.60;0.60;;;;;;;27.31;100.00;102354.41;109259;1253;59175;-52
2023/08/02 09:31:43;;;;;;;1.10;0.60;;;;;;;27.32;100.00;102406.92;108978;1253;73852;-53
2023/08/02 09:34:10;;;;;;;2.10;0.60;;;;;;;27.30;100.00;102355.41;109094;1253;65724;-52
2023/08/02 09:36:38;;;;;;;0.60;0.60;;;;;;;27.32;100.00;102348.83;109077;1253;72436;-53
2023/08/02 09:39:16;;;;;;;0.60;0.60;;;;;;;27.34;100.00;102339.83;108951;1253;58875;-54
2023/08/02 09:44:18;;;;;;;1.00;0.60;;;;;;;27.43;100.00;102063.84;102012;1292;600895;-50
2023/08/02 09:46:46;;;;;;;;;;;;;;;27.48;100.00;102426.46;108254;1267;60057;-53
2023/08/02 09:49:17;;;;;;;0.70;0.50;;;;;;;27.55;100.00;102381.93;108443;1266;58513;-52
2023/08/02 09:51:46;;;;;;;0.50;0.50;;;;;;;27.59;100.00;102375.50;108196;1267;70925;-52
2023/08/02 09:54:14;;;;;;;0.70;0.70;;;;;;;27.65;100.00;102356.21;107391;1272;65661;-53
2023/08/02 09:56:42;;;;;;;0.60;0.60;;;;;;;27.69;100.00;102352.90;104002;1275;182299;-52
2023/08/02 09:59:09;;;;;;;0.60;0.60;;;;;;;27.73;100.00;102350.34;108411;1264;60574;-52
2023/08/02 10:01:37;;;;;;;3.00;0.60;;;;;;;27.82;100.00;102351.73;105989;1268;60471;-53
2023/08/02 10:04:06;;;;;;;1.90;0.60;;;;;;;27.91;100.00;102365.40;104595;1269;72374;-51
2023/08/02 10:06:43;;;;;;;1.10;0.60;;;;;;;27.96;100.00;102369.75;104252;1263;65659;-50
2023/08/02 10:09:13;;;;;;;2.40;0.50;;;;;;;27.98;100.00;102388.60;104282;1269;71431;-52
2023/08/02 10:11:48;;;;;;;0.60;0.60;;;;;;;28.00;100.00;102375.30;104481;1263;59638;-51
2023/08/02 10:14:15;;;;;;;0.70;0.60;;;;;;;28.04;100.00;102382.77;104320;1268;60556;-52
2023/08/02 10:16:43;;;;;;;1.10;0.60;;;;;;;28.07;100.00;102369.80;104094;1272;72404;-50
2023/08/02 10:19:13;;;;;;;1.90;0.50;;;;;;;28.09;100.00;102362.79;104101;1269;67220;-52
2023/08/02 10:21:41;;;;;;;1.80;0.60;;;;;;;28.15;100.00;102368.23;104102;1269;73164;-53
2023/08/02 10:24:10;;;;;;;0.80;0.60;;;;;;;28.19;100.00;102360.51;103822;1263;60526;-53
2023/08/02 10:26:37;;;;;;;2.30;0.60;;;;;;;28.23;100.00;102367.02;104991;1267;61939;-54
2023/08/02 10:29:04;;;;;;;0.50;0.50;;;;;;;28.23;100.00;102357.79;103756;1267;74102;-53
2023/08/02 10:31:32;;;;;;;1.10;0.60;;;;;;;28.23;100.00;102348.16;103998;1264;65039;-53
2023/08/02 10:33:59;;;;;;;0.70;0.60;;;;;;;28.26;100.00;102346.43;103838;1267;72660;-53
2023/08/02 10:36:26;;;;;;;0.90;0.60;;;;;;;28.31;100.00;102342.57;106061;1268;61280;-53
2023/08/02 10:38:54;;;;;;;0.60;0.60;;;;;;;28.33;100.00;102340.02;103955;1269;59538;-54
2023/08/02 10:41:26;;;;;;;0.60;0.60;;;;;;;28.30;100.00;102333.09;104604;1270;73448;-53
2023/08/02 10:43:53;;;;;;;1.70;0.50;;;;;;;28.22;100.00;102318.34;106333;1264;66753;-52
2023/08/02 10:46:26;;;;;;;0.50;0.50;;;;;;;28.13;100.00;102291.56;104244;1266;73043;-52
2023/08/02 10:48:55;;;;;;;1.10;0.50;;;;;;;28.03;100.00;102277.63;108223;1267;60065;-52
2023/08/02 10:51:38;;;;;;;0.90;0.50;;;;;;;27.97;100.00;102251.38;106915;1264;58856;-53
2023/08/02 10:54:08;;;;;;;1.40;0.50;;;;;;;27.94;100.00;102253.88;104794;1260;73094;-53
2023/08/02 10:56:51;;;;;;;0.60;0.60;;;;;;;27.92;100.00;102208.98;104333;1265;66881;-52
2023/08/02 10:59:24;;;;;;;0.80;0.60;;;;;;;27.90;100.00;102209.00;104471;1266;73063;-52
2023/08/02 11:01:59;;;;;;;0.80;0.50;;;;;;;27.92;100.00;102182.27;104694;1256;59688;-53
2023/08/02 11:04:28;;;;;;;0.50;0.50;;;;;;;27.90;100.00;102161.39;104619;1257;60037;-52
2023/08/02 11:06:55;;;;;;;1.50;0.50;;;;;;;27.86;100.00;102124.98;105099;1260;73108;-52
2023/08/02 11:09:30;;;;;;;0.50;0.50;;;;;;;27.86;100.00;102105.05;104947;1257;65634;-53
2023/08/02 11:12:08;;;;;;;0.50;0.50;;;;;;;27.90;100.00;102102.85;104801;1256;71438;-52
2023/08/02 11:14:36;;;;;;;24.30;0.90;;;;;;;27.95;100.00;102104.70;104563;1257;60672;-52
2023/08/02 11:17:04;;;;;;;0.60;0.50;;;;;;;28.00;100.00;102084.27;105100;1260;59644;-52